sensor_id;sensor_type;location;lat;lon;timestamp;temperature;humidity
322;DHT22;148;51.480;7.208;2023-03-01T11:19:31;4.40;62.60
322;DHT22;148;51.480;7.208;2023-03-01T11:22:12;4.60;62.60
322;DHT22;148;51.480;7.208;2023-03-01T11:24:51;4.90;61.60
322;DHT22;148;51.480;7.208;2023-03-01T11:27:32;5.30;59.60
322;DHT22;148;51.480;7.208;2023-03-01T11:30:05;5.50;58.10
322;DHT22;148;51.480;7.208;2023-03-01T11:32:40;5.70;57.60
322;DHT22;148;51.480;7.208;2023-03-01T11:35:16;5.90;57.00
322;DHT22;148;51.480;7.208;2023-03-01T11:40:52;6.40;55.10
322;DHT22;148;51.480;7.208;2023-03-01T11:46:31;6.50;54.70
322;DHT22;148;51.480;7.208;2023-03-01T11:49:34;6.60;54.30
322;DHT22;148;51.480;7.208;2023-03-01T11:57:43;6.70;54.00
322;DHT22;148;51.480;7.208;2023-03-01T12:06:28;7.00;53.70
322;DHT22;148;51.480;7.208;2023-03-01T12:20:11;6.70;53.90
322;DHT22;148;51.480;7.208;2023-03-01T12:31:01;6.60;53.90
322;DHT22;148;51.480;7.208;2023-03-01T12:33:57;6.70;54.80
322;DHT22;148;51.480;7.208;2023-03-01T12:36:38;6.80;55.00
322;DHT22;148;51.480;7.208;2023-03-01T12:49:45;7.00;54.40
322;DHT22;148;51.480;7.208;2023-03-01T12:54:42;6.80;53.50
322;DHT22;148;51.480;7.208;2023-03-01T13:02:22;6.80;52.90
322;DHT22;148;51.480;7.208;2023-03-01T13:04:54;6.80;53.80
322;DHT22;148;51.480;7.208;2023-03-01T13:10:10;6.30;55.50
322;DHT22;148;51.480;7.208;2023-03-01T13:12:50;6.40;54.60
322;DHT22;148;51.480;7.208;2023-03-01T13:20:17;6.70;53.20
322;DHT22;148;51.480;7.208;2023-03-01T13:22:45;6.80;53.00
322;DHT22;148;51.480;7.208;2023-03-01T13:25:18;6.90;52.60
322;DHT22;148;51.480;7.208;2023-03-01T13:27:46;7.00;52.10
322;DHT22;148;51.480;7.208;2023-03-01T13:35:54;7.20;50.60
322;DHT22;148;51.480;7.208;2023-03-01T13:41:10;7.10;49.90
322;DHT22;148;51.480;7.208;2023-03-01T13:43:38;7.10;50.40
322;DHT22;148;51.480;7.208;2023-03-01T13:46:18;7.00;50.50
322;DHT22;148;51.480;7.208;2023-03-01T13:48:50;6.90;50.90
322;DHT22;148;51.480;7.208;2023-03-01T13:51:25;6.80;51.10
322;DHT22;148;51.480;7.208;2023-03-01T13:53:53;6.80;51.70
322;DHT22;148;51.480;7.208;2023-03-01T13:56:25;6.90;51.30
322;DHT22;148;51.480;7.208;2023-03-01T13:59:18;6.90;50.90
322;DHT22;148;51.480;7.208;2023-03-01T14:01:43;7.10;50.50
322;DHT22;148;51.480;7.208;2023-03-01T14:04:24;7.20;50.30
322;DHT22;148;51.480;7.208;2023-03-01T14:06:51;7.40;50.00
322;DHT22;148;51.480;7.208;2023-03-01T14:14:45;7.60;49.80
322;DHT22;148;51.480;7.208;2023-03-01T14:19:45;7.70;49.80
322;DHT22;148;51.480;7.208;2023-03-01T14:24:57;7.80;49.10
322;DHT22;148;51.480;7.208;2023-03-01T14:27:33;7.80;48.90
322;DHT22;148;51.480;7.208;2023-03-01T14:30:10;7.80;48.70
322;DHT22;148;51.480;7.208;2023-03-01T14:32:37;7.90;48.90
322;DHT22;148;51.480;7.208;2023-03-01T14:35:23;8.00;48.70
322;DHT22;148;51.480;7.208;2023-03-01T14:37:49;8.00;48.40
322;DHT22;148;51.480;7.208;2023-03-01T14:40:41;8.10;48.70
322;DHT22;148;51.480;7.208;2023-03-01T14:43:21;8.20;49.20
322;DHT22;148;51.480;7.208;2023-03-01T14:45:49;8.20;48.80
322;DHT22;148;51.480;7.208;2023-03-01T14:48:15;8.10;48.60
322;DHT22;148;51.480;7.208;2023-03-01T14:50:43;8.20;48.50
322;DHT22;148;51.480;7.208;2023-03-01T14:53:19;8.00;48.90
322;DHT22;148;51.480;7.208;2023-03-01T14:55:56;8.00;49.10
322;DHT22;148;51.480;7.208;2023-03-01T14:58:27;8.00;49.40
322;DHT22;148;51.480;7.208;2023-03-01T15:01:01;7.90;49.60
322;DHT22;148;51.480;7.208;2023-03-01T15:03:41;8.00;50.50
322;DHT22;148;51.480;7.208;2023-03-01T15:06:11;8.10;49.60
322;DHT22;148;51.480;7.208;2023-03-01T15:08:44;7.90;49.60
322;DHT22;148;51.480;7.208;2023-03-01T15:11:21;7.90;49.90
322;DHT22;148;51.480;7.208;2023-03-01T15:13:48;8.00;49.90
322;DHT22;148;51.480;7.208;2023-03-01T15:16:19;7.90;50.60
322;DHT22;148;51.480;7.208;2023-03-01T15:18:55;7.90;50.20
322;DHT22;148;51.480;7.208;2023-03-01T15:21:30;7.90;49.80
322;DHT22;148;51.480;7.208;2023-03-01T15:26:50;8.00;48.70
322;DHT22;148;51.480;7.208;2023-03-01T15:29:21;8.10;48.40
322;DHT22;148;51.480;7.208;2023-03-01T15:35:43;8.10;47.70
322;DHT22;148;51.480;7.208;2023-03-01T15:41:38;8.10;47.90
322;DHT22;148;51.480;7.208;2023-03-01T15:44:26;8.00;47.70
322;DHT22;148;51.480;7.208;2023-03-01T15:46:51;8.20;47.80
322;DHT22;148;51.480;7.208;2023-03-01T15:49:40;8.20;47.40
322;DHT22;148;51.480;7.208;2023-03-01T15:52:24;8.10;47.50
322;DHT22;148;51.480;7.208;2023-03-01T15:55:01;8.10;48.10
322;DHT22;148;51.480;7.208;2023-03-01T15:57:27;8.00;47.70
322;DHT22;148;51.480;7.208;2023-03-01T15:59:53;8.10;47.30
322;DHT22;148;51.480;7.208;2023-03-01T16:02:19;8.20;47.20
322;DHT22;148;51.480;7.208;2023-03-01T16:04:46;8.20;47.10
322;DHT22;148;51.480;7.208;2023-03-01T16:07:13;8.30;47.10
322;DHT22;148;51.480;7.208;2023-03-01T16:09:38;8.40;46.90
322;DHT22;148;51.480;7.208;2023-03-01T16:12:05;8.20;46.40
322;DHT22;148;51.480;7.208;2023-03-01T16:14:31;8.20;46.90
322;DHT22;148;51.480;7.208;2023-03-01T16:16:56;8.20;47.00
322;DHT22;148;51.480;7.208;2023-03-01T16:19:22;8.30;46.70
322;DHT22;148;51.480;7.208;2023-03-01T16:21:48;8.30;46.40
322;DHT22;148;51.480;7.208;2023-03-01T16:24:15;8.30;45.80
322;DHT22;148;51.480;7.208;2023-03-01T16:26:40;8.30;46.00
322;DHT22;148;51.480;7.208;2023-03-01T16:29:07;8.30;45.40
322;DHT22;148;51.480;7.208;2023-03-01T16:31:33;8.30;45.30
322;DHT22;148;51.480;7.208;2023-03-01T16:33:59;8.20;44.60
322;DHT22;148;51.480;7.208;2023-03-01T16:36:26;8.20;44.50
322;DHT22;148;51.480;7.208;2023-03-01T16:38:54;8.20;44.30
322;DHT22;148;51.480;7.208;2023-03-01T16:41:22;8.20;44.30
322;DHT22;148;51.480;7.208;2023-03-01T16:43:48;8.20;44.50
322;DHT22;148;51.480;7.208;2023-03-01T16:46:17;8.20;44.40
322;DHT22;148;51.480;7.208;2023-03-01T16:48:43;8.00;44.20
322;DHT22;148;51.480;7.208;2023-03-01T16:51:09;8.00;44.90
322;DHT22;148;51.480;7.208;2023-03-01T16:53:35;7.70;45.00
322;DHT22;148;51.480;7.208;2023-03-01T16:56:02;7.80;45.40
322;DHT22;148;51.480;7.208;2023-03-01T16:58:28;7.90;45.50
322;DHT22;148;51.480;7.208;2023-03-01T17:00:54;7.90;45.50
322;DHT22;148;51.480;7.208;2023-03-01T17:03:22;8.00;45.50
322;DHT22;148;51.480;7.208;2023-03-01T17:05:47;8.00;45.60
322;DHT22;148;51.480;7.208;2023-03-01T17:08:13;8.00;45.70
322;DHT22;148;51.480;7.208;2023-03-01T17:10:39;7.90;45.80
322;DHT22;148;51.480;7.208;2023-03-01T17:13:07;7.90;46.00
322;DHT22;148;51.480;7.208;2023-03-01T17:15:34;7.60;46.20
322;DHT22;148;51.480;7.208;2023-03-01T17:18:00;7.70;46.60
322;DHT22;148;51.480;7.208;2023-03-01T17:20:25;7.60;46.40
322;DHT22;148;51.480;7.208;2023-03-01T17:22:51;7.50;46.50
322;DHT22;148;51.480;7.208;2023-03-01T17:25:17;7.50;46.60
322;DHT22;148;51.480;7.208;2023-03-01T17:27:43;7.40;47.30
322;DHT22;148;51.480;7.208;2023-03-01T17:30:11;7.50;47.30
322;DHT22;148;51.480;7.208;2023-03-01T17:32:37;7.60;47.30
322;DHT22;148;51.480;7.208;2023-03-01T17:35:03;7.70;47.10
322;DHT22;148;51.480;7.208;2023-03-01T17:37:28;7.70;47.00
322;DHT22;148;51.480;7.208;2023-03-01T17:39:54;7.70;47.10
322;DHT22;148;51.480;7.208;2023-03-01T17:42:20;7.70;47.30
322;DHT22;148;51.480;7.208;2023-03-01T17:44:45;7.60;47.30
322;DHT22;148;51.480;7.208;2023-03-01T17:47:11;7.60;47.30
322;DHT22;148;51.480;7.208;2023-03-01T17:49:36;7.50;47.50
322;DHT22;148;51.480;7.208;2023-03-01T17:52:02;7.50;47.60
322;DHT22;148;51.480;7.208;2023-03-01T17:54:28;7.10;47.90
322;DHT22;148;51.480;7.208;2023-03-01T17:56:54;7.10;48.40
322;DHT22;148;51.480;7.208;2023-03-01T17:59:20;7.10;48.60
322;DHT22;148;51.480;7.208;2023-03-01T18:01:46;7.30;48.80
322;DHT22;148;51.480;7.208;2023-03-01T18:04:11;7.20;48.50
322;DHT22;148;51.480;7.208;2023-03-01T18:06:38;7.30;48.80
322;DHT22;148;51.480;7.208;2023-03-01T18:09:05;7.30;48.70
322;DHT22;148;51.480;7.208;2023-03-01T18:11:32;7.40;48.70
322;DHT22;148;51.480;7.208;2023-03-01T18:13:58;7.50;48.70
322;DHT22;148;51.480;7.208;2023-03-01T18:16:24;7.50;48.60
322;DHT22;148;51.480;7.208;2023-03-01T18:18:54;7.50;48.40
322;DHT22;148;51.480;7.208;2023-03-01T18:21:20;7.50;48.40
322;DHT22;148;51.480;7.208;2023-03-01T18:23:47;7.50;48.40
322;DHT22;148;51.480;7.208;2023-03-01T18:26:14;7.30;48.20
322;DHT22;148;51.480;7.208;2023-03-01T18:28:42;7.30;48.70
322;DHT22;148;51.480;7.208;2023-03-01T18:32:50;7.30;48.70
322;DHT22;148;51.480;7.208;2023-03-01T18:35:21;7.20;48.40
322;DHT22;148;51.480;7.208;2023-03-01T18:37:47;7.10;49.10
322;DHT22;148;51.480;7.208;2023-03-01T18:40:14;7.10;48.90
322;DHT22;148;51.480;7.208;2023-03-01T18:42:39;7.00;49.40
322;DHT22;148;51.480;7.208;2023-03-01T18:45:06;7.00;49.50
322;DHT22;148;51.480;7.208;2023-03-01T18:50:21;6.60;50.10
322;DHT22;148;51.480;7.208;2023-03-01T18:52:46;6.60;50.30
322;DHT22;148;51.480;7.208;2023-03-01T18:55:12;6.60;50.60
322;DHT22;148;51.480;7.208;2023-03-01T18:57:37;6.50;50.60
322;DHT22;148;51.480;7.208;2023-03-01T19:01:48;6.40;50.60
322;DHT22;148;51.480;7.208;2023-03-01T19:04:13;6.40;50.90
322;DHT22;148;51.480;7.208;2023-03-01T19:06:40;6.30;51.40
322;DHT22;148;51.480;7.208;2023-03-01T19:09:07;6.30;51.60
322;DHT22;148;51.480;7.208;2023-03-01T19:11:33;6.40;51.80
322;DHT22;148;51.480;7.208;2023-03-01T19:14:00;6.50;51.60
322;DHT22;148;51.480;7.208;2023-03-01T19:16:28;6.50;51.90
322;DHT22;148;51.480;7.208;2023-03-01T19:18:57;6.60;51.80
322;DHT22;148;51.480;7.208;2023-03-01T19:21:26;6.60;51.80
322;DHT22;148;51.480;7.208;2023-03-01T19:23:52;6.70;52.00
322;DHT22;148;51.480;7.208;2023-03-01T19:26:21;6.60;51.70
322;DHT22;148;51.480;7.208;2023-03-01T19:28:47;6.40;52.30
322;DHT22;148;51.480;7.208;2023-03-01T19:31:19;6.40;52.60
322;DHT22;148;51.480;7.208;2023-03-01T19:33:45;6.40;52.60
322;DHT22;148;51.480;7.208;2023-03-01T19:36:12;6.40;52.80
322;DHT22;148;51.480;7.208;2023-03-01T19:38:39;6.30;53.20
322;DHT22;148;51.480;7.208;2023-03-01T19:41:11;6.40;53.50
322;DHT22;148;51.480;7.208;2023-03-01T19:43:40;6.40;53.40
322;DHT22;148;51.480;7.208;2023-03-01T19:46:06;6.50;53.70
322;DHT22;148;51.480;7.208;2023-03-01T19:48:32;6.50;53.50
322;DHT22;148;51.480;7.208;2023-03-01T19:50:57;6.50;53.50
322;DHT22;148;51.480;7.208;2023-03-01T19:53:23;6.50;53.60
